sensor_id;sensor_type;location;lat;lon;timestamp;P1;durP1;ratioP1;P2;durP2;ratioP2
79412;SDS011;68863;49.528;11.010;2023-12-20T00:00:29;6.38;;;2.05;;
79412;SDS011;68863;49.528;11.010;2023-12-20T00:01:29;4.47;;;1.88;;
79412;SDS011;68863;49.528;11.010;2023-12-20T00:02:29;5.85;;;1.92;;
79412;SDS011;68863;49.528;11.010;2023-12-20T00:03:30;4.82;;;1.83;;
79412;SDS011;68863;49.528;11.010;2023-12-20T00:04:30;5.27;;;2.13;;
79412;SDS011;68863;49.528;11.010;2023-12-20T00:05:30;6.33;;;1.87;;
79412;SDS011;68863;49.528;11.010;2023-12-20T00:06:33;5.50;;;1.60;;
79412;SDS011;68863;49.528;11.010;2023-12-20T00:07:33;6.00;;;2.00;;
79412;SDS011;68863;49.528;11.010;2023-12-20T00:08:34;4.77;;;1.63;;
79412;SDS011;68863;49.528;11.010;2023-12-20T00:09:34;5.82;;;2.28;;
79412;SDS011;68863;49.528;11.010;2023-12-20T00:10:34;5.53;;;2.17;;
79412;SDS011;68863;49.528;11.010;2023-12-20T00:11:34;5.67;;;2.07;;
79412;SDS011;68863;49.528;11.010;2023-12-20T00:12:35;9.10;;;1.90;;
79412;SDS011;68863;49.528;11.010;2023-12-20T00:13:35;5.40;;;2.00;;
79412;SDS011;68863;49.528;11.010;2023-12-20T00:14:35;7.13;;;1.70;;
79412;SDS011;68863;49.528;11.010;2023-12-20T00:15:36;5.63;;;2.10;;
79412;SDS011;68863;49.528;11.010;2023-12-20T00:16:36;4.80;;;1.67;;
79412;SDS011;68863;49.528;11.010;2023-12-20T00:17:36;6.77;;;1.83;;
79412;SDS011;68863;49.528;11.010;2023-12-20T00:18:37;5.90;;;2.10;;
79412;SDS011;68863;49.528;11.010;2023-12-20T00:19:37;5.50;;;1.75;;
79412;SDS011;68863;49.528;11.010;2023-12-20T00:20:37;6.90;;;1.80;;
79412;SDS011;68863;49.528;11.010;2023-12-20T00:21:38;4.22;;;1.45;;
79412;SDS011;68863;49.528;11.010;2023-12-20T00:22:38;5.18;;;1.50;;
79412;SDS011;68863;49.528;11.010;2023-12-20T00:23:38;5.53;;;1.73;;
79412;SDS011;68863;49.528;11.010;2023-12-20T00:24:38;6.17;;;2.20;;
79412;SDS011;68863;49.528;11.010;2023-12-20T00:25:39;4.37;;;1.50;;
79412;SDS011;68863;49.528;11.010;2023-12-20T00:26:39;6.17;;;1.60;;
79412;SDS011;68863;49.528;11.010;2023-12-20T00:27:39;4.10;;;1.47;;
79412;SDS011;68863;49.528;11.010;2023-12-20T00:28:39;6.60;;;1.80;;
79412;SDS011;68863;49.528;11.010;2023-12-20T00:29:40;5.30;;;1.57;;
79412;SDS011;68863;49.528;11.010;2023-12-20T00:30:42;5.00;;;1.63;;
79412;SDS011;68863;49.528;11.010;2023-12-20T00:31:43;5.35;;;1.52;;
79412;SDS011;68863;49.528;11.010;2023-12-20T00:32:44;4.50;;;1.27;;
79412;SDS011;68863;49.528;11.010;2023-12-20T00:33:46;5.22;;;1.40;;
79412;SDS011;68863;49.528;11.010;2023-12-20T00:34:47;4.45;;;1.30;;
79412;SDS011;68863;49.528;11.010;2023-12-20T00:35:47;4.68;;;1.50;;
79412;SDS011;68863;49.528;11.010;2023-12-20T00:36:48;7.55;;;1.52;;
79412;SDS011;68863;49.528;11.010;2023-12-20T00:37:48;5.23;;;1.50;;
79412;SDS011;68863;49.528;11.010;2023-12-20T00:38:48;4.05;;;1.35;;
79412;SDS011;68863;49.528;11.010;2023-12-20T00:39:49;5.38;;;1.83;;
79412;SDS011;68863;49.528;11.010;2023-12-20T00:40:50;4.30;;;1.57;;
79412;SDS011;68863;49.528;11.010;2023-12-20T00:41:50;4.40;;;1.33;;
79412;SDS011;68863;49.528;11.010;2023-12-20T00:42:50;3.77;;;1.13;;
79412;SDS011;68863;49.528;11.010;2023-12-20T00:43:50;5.32;;;1.40;;
79412;SDS011;68863;49.528;11.010;2023-12-20T00:44:51;4.23;;;1.10;;
79412;SDS011;68863;49.528;11.010;2023-12-20T00:45:51;5.87;;;1.27;;
79412;SDS011;68863;49.528;11.010;2023-12-20T00:46:51;3.57;;;1.00;;
79412;SDS011;68863;49.528;11.010;2023-12-20T00:47:51;4.10;;;1.10;;
79412;SDS011;68863;49.528;11.010;2023-12-20T00:48:52;4.27;;;1.13;;
79412;SDS011;68863;49.528;11.010;2023-12-20T00:49:52;3.65;;;1.20;;
79412;SDS011;68863;49.528;11.010;2023-12-20T00:50:52;6.23;;;1.83;;
79412;SDS011;68863;49.528;11.010;2023-12-20T00:51:53;3.75;;;1.10;;
79412;SDS011;68863;49.528;11.010;2023-12-20T00:52:53;5.13;;;1.50;;
79412;SDS011;68863;49.528;11.010;2023-12-20T00:53:54;4.57;;;1.00;;
79412;SDS011;68863;49.528;11.010;2023-12-20T00:54:55;3.65;;;1.05;;
79412;SDS011;68863;49.528;11.010;2023-12-20T00:55:55;4.67;;;0.90;;
79412;SDS011;68863;49.528;11.010;2023-12-20T00:56:55;3.88;;;1.10;;
79412;SDS011;68863;49.528;11.010;2023-12-20T00:57:55;3.13;;;0.80;;
79412;SDS011;68863;49.528;11.010;2023-12-20T00:58:56;3.10;;;0.80;;
79412;SDS011;68863;49.528;11.010;2023-12-20T00:59:56;3.57;;;0.90;;
79412;SDS011;68863;49.528;11.010;2023-12-20T01:00:56;3.45;;;0.95;;
79412;SDS011;68863;49.528;11.010;2023-12-20T01:01:58;2.97;;;0.77;;
79412;SDS011;68863;49.528;11.010;2023-12-20T01:02:58;4.33;;;1.00;;
79412;SDS011;68863;49.528;11.010;2023-12-20T01:03:58;3.50;;;0.90;;
79412;SDS011;68863;49.528;11.010;2023-12-20T01:04:58;5.43;;;1.02;;
79412;SDS011;68863;49.528;11.010;2023-12-20T01:05:59;4.60;;;0.90;;
79412;SDS011;68863;49.528;11.010;2023-12-20T01:06:59;4.37;;;0.93;;
79412;SDS011;68863;49.528;11.010;2023-12-20T01:07:59;3.60;;;0.93;;
79412;SDS011;68863;49.528;11.010;2023-12-20T01:08:59;3.20;;;0.80;;
79412;SDS011;68863;49.528;11.010;2023-12-20T01:10:00;2.90;;;0.70;;
79412;SDS011;68863;49.528;11.010;2023-12-20T01:11:00;2.40;;;0.60;;
79412;SDS011;68863;49.528;11.010;2023-12-20T01:12:00;3.20;;;0.88;;
79412;SDS011;68863;49.528;11.010;2023-12-20T01:13:00;2.97;;;0.70;;
79412;SDS011;68863;49.528;11.010;2023-12-20T01:14:01;3.73;;;1.10;;
79412;SDS011;68863;49.528;11.010;2023-12-20T01:15:01;3.85;;;1.55;;
79412;SDS011;68863;49.528;11.010;2023-12-20T01:16:02;3.10;;;0.88;;
79412;SDS011;68863;49.528;11.010;2023-12-20T01:17:02;4.60;;;0.98;;
79412;SDS011;68863;49.528;11.010;2023-12-20T01:18:03;3.08;;;0.80;;
79412;SDS011;68863;49.528;11.010;2023-12-20T01:19:03;3.15;;;0.60;;
79412;SDS011;68863;49.528;11.010;2023-12-20T01:20:04;3.60;;;0.73;;
79412;SDS011;68863;49.528;11.010;2023-12-20T01:21:04;3.05;;;0.90;;
79412;SDS011;68863;49.528;11.010;2023-12-20T01:22:05;2.67;;;0.60;;
79412;SDS011;68863;49.528;11.010;2023-12-20T01:23:05;2.50;;;0.45;;
79412;SDS011;68863;49.528;11.010;2023-12-20T01:24:05;3.95;;;0.70;;
79412;SDS011;68863;49.528;11.010;2023-12-20T01:25:06;2.60;;;0.60;;
79412;SDS011;68863;49.528;11.010;2023-12-20T01:26:06;2.22;;;0.60;;
79412;SDS011;68863;49.528;11.010;2023-12-20T01:27:07;4.45;;;0.80;;
79412;SDS011;68863;49.528;11.010;2023-12-20T01:28:07;2.43;;;0.40;;
79412;SDS011;68863;49.528;11.010;2023-12-20T01:29:07;2.17;;;0.47;;
79412;SDS011;68863;49.528;11.010;2023-12-20T01:30:08;2.67;;;0.40;;
79412;SDS011;68863;49.528;11.010;2023-12-20T01:31:08;2.53;;;0.43;;
79412;SDS011;68863;49.528;11.010;2023-12-20T01:32:09;2.22;;;0.60;;
79412;SDS011;68863;49.528;11.010;2023-12-20T01:33:09;3.20;;;0.63;;
79412;SDS011;68863;49.528;11.010;2023-12-20T01:34:09;2.33;;;0.60;;
79412;SDS011;68863;49.528;11.010;2023-12-20T01:35:09;2.37;;;0.60;;
79412;SDS011;68863;49.528;11.010;2023-12-20T01:36:10;2.08;;;0.50;;
79412;SDS011;68863;49.528;11.010;2023-12-20T01:37:11;2.42;;;0.40;;
79412;SDS011;68863;49.528;11.010;2023-12-20T01:38:11;2.33;;;0.60;;
79412;SDS011;68863;49.528;11.010;2023-12-20T01:39:11;2.73;;;0.60;;
79412;SDS011;68863;49.528;11.010;2023-12-20T01:40:12;2.17;;;0.50;;
79412;SDS011;68863;49.528;11.010;2023-12-20T01:41:12;2.05;;;0.57;;
79412;SDS011;68863;49.528;11.010;2023-12-20T01:42:12;2.33;;;0.60;;
79412;SDS011;68863;49.528;11.010;2023-12-20T01:43:12;2.17;;;0.53;;
79412;SDS011;68863;49.528;11.010;2023-12-20T01:44:13;2.75;;;0.52;;
79412;SDS011;68863;49.528;11.010;2023-12-20T01:45:13;1.80;;;0.40;;
79412;SDS011;68863;49.528;11.010;2023-12-20T01:46:14;2.90;;;0.55;;
79412;SDS011;68863;49.528;11.010;2023-12-20T01:47:14;2.92;;;0.63;;
79412;SDS011;68863;49.528;11.010;2023-12-20T01:48:15;1.77;;;0.50;;
79412;SDS011;68863;49.528;11.010;2023-12-20T01:49:16;2.10;;;0.50;;
79412;SDS011;68863;49.528;11.010;2023-12-20T01:50:16;2.63;;;0.60;;
79412;SDS011;68863;49.528;11.010;2023-12-20T01:51:17;2.45;;;0.47;;
79412;SDS011;68863;49.528;11.010;2023-12-20T01:52:17;2.15;;;0.47;;
79412;SDS011;68863;49.528;11.010;2023-12-20T01:53:19;2.03;;;0.50;;
79412;SDS011;68863;49.528;11.010;2023-12-20T01:54:23;1.88;;;0.50;;
79412;SDS011;68863;49.528;11.010;2023-12-20T01:55:24;2.08;;;0.52;;
79412;SDS011;68863;49.528;11.010;2023-12-20T01:56:26;2.95;;;0.68;;
79412;SDS011;68863;49.528;11.010;2023-12-20T01:57:28;3.17;;;0.50;;
79412;SDS011;68863;49.528;11.010;2023-12-20T01:58:29;1.85;;;0.40;;
79412;SDS011;68863;49.528;11.010;2023-12-20T01:59:29;0.88;;;0.28;;
79412;SDS011;68863;49.528;11.010;2023-12-20T02:00:30;1.50;;;0.40;;
79412;SDS011;68863;49.528;11.010;2023-12-20T02:01:31;2.10;;;0.50;;
79412;SDS011;68863;49.528;11.010;2023-12-20T02:02:32;2.88;;;0.50;;
79412;SDS011;68863;49.528;11.010;2023-12-20T02:03:33;1.50;;;0.50;;
79412;SDS011;68863;49.528;11.010;2023-12-20T02:04:36;2.13;;;0.40;;
79412;SDS011;68863;49.528;11.010;2023-12-20T02:05:37;1.95;;;0.50;;
79412;SDS011;68863;49.528;11.010;2023-12-20T02:06:38;2.42;;;0.55;;
79412;SDS011;68863;49.528;11.010;2023-12-20T02:07:40;1.52;;;0.40;;
79412;SDS011;68863;49.528;11.010;2023-12-20T02:08:40;1.92;;;0.38;;
79412;SDS011;68863;49.528;11.010;2023-12-20T02:09:41;1.83;;;0.38;;
79412;SDS011;68863;49.528;11.010;2023-12-20T02:10:41;1.88;;;0.40;;
79412;SDS011;68863;49.528;11.010;2023-12-20T02:11:42;1.92;;;0.40;;
79412;SDS011;68863;49.528;11.010;2023-12-20T02:12:43;2.25;;;0.40;;
79412;SDS011;68863;49.528;11.010;2023-12-20T02:13:43;1.47;;;0.30;;
79412;SDS011;68863;49.528;11.010;2023-12-20T02:14:43;2.80;;;0.68;;
79412;SDS011;68863;49.528;11.010;2023-12-20T02:15:44;1.60;;;0.30;;
79412;SDS011;68863;49.528;11.010;2023-12-20T02:16:44;1.83;;;0.40;;
79412;SDS011;68863;49.528;11.010;2023-12-20T02:17:45;0.82;;;0.20;;
79412;SDS011;68863;49.528;11.010;2023-12-20T02:18:47;2.03;;;0.47;;
79412;SDS011;68863;49.528;11.010;2023-12-20T02:19:47;1.73;;;0.30;;
79412;SDS011;68863;49.528;11.010;2023-12-20T02:20:47;2.08;;;0.40;;
79412;SDS011;68863;49.528;11.010;2023-12-20T02:21:48;2.43;;;0.40;;
79412;SDS011;68863;49.528;11.010;2023-12-20T02:22:48;2.10;;;0.43;;
79412;SDS011;68863;49.528;11.010;2023-12-20T02:23:48;2.15;;;0.50;;
79412;SDS011;68863;49.528;11.010;2023-12-20T02:24:48;3.73;;;0.50;;
79412;SDS011;68863;49.528;11.010;2023-12-20T02:25:49;2.17;;;0.50;;
79412;SDS011;68863;49.528;11.010;2023-12-20T02:26:49;1.50;;;0.30;;
79412;SDS011;68863;49.528;11.010;2023-12-20T02:27:49;1.37;;;0.30;;
79412;SDS011;68863;49.528;11.010;2023-12-20T02:28:50;1.58;;;0.22;;
79412;SDS011;68863;49.528;11.010;2023-12-20T02:29:50;3.80;;;0.40;;
79412;SDS011;68863;49.528;11.010;2023-12-20T02:30:51;2.70;;;0.65;;
79412;SDS011;68863;49.528;11.010;2023-12-20T02:31:51;1.67;;;0.50;;
79412;SDS011;68863;49.528;11.010;2023-12-20T02:32:51;1.93;;;0.47;;
79412;SDS011;68863;49.528;11.010;2023-12-20T02:33:52;1.48;;;0.40;;
79412;SDS011;68863;49.528;11.010;2023-12-20T02:34:53;1.27;;;0.23;;
79412;SDS011;68863;49.528;11.010;2023-12-20T02:36:55;1.03;;;0.20;;
79412;SDS011;68863;49.528;11.010;2023-12-20T02:37:56;1.67;;;0.30;;
79412;SDS011;68863;49.528;11.010;2023-12-20T02:38:56;1.50;;;0.30;;
79412;SDS011;68863;49.528;11.010;2023-12-20T02:39:56;1.47;;;0.30;;
79412;SDS011;68863;49.528;11.010;2023-12-20T02:40:56;1.73;;;0.57;;
79412;SDS011;68863;49.528;11.010;2023-12-20T02:41:56;1.27;;;0.30;;
79412;SDS011;68863;49.528;11.010;2023-12-20T02:42:57;1.23;;;0.30;;
79412;SDS011;68863;49.528;11.010;2023-12-20T02:43:57;2.07;;;0.60;;
79412;SDS011;68863;49.528;11.010;2023-12-20T02:44:57;2.23;;;0.33;;
79412;SDS011;68863;49.528;11.010;2023-12-20T02:45:58;1.38;;;0.30;;
79412;SDS011;68863;49.528;11.010;2023-12-20T02:46:58;1.20;;;0.27;;
79412;SDS011;68863;49.528;11.010;2023-12-20T02:47:58;1.30;;;0.30;;
79412;SDS011;68863;49.528;11.010;2023-12-20T02:48:58;2.13;;;0.30;;
79412;SDS011;68863;49.528;11.010;2023-12-20T02:49:59;1.57;;;0.20;;
79412;SDS011;68863;49.528;11.010;2023-12-20T02:50:59;1.13;;;0.33;;
79412;SDS011;68863;49.528;11.010;2023-12-20T02:51:59;1.57;;;0.27;;
79412;SDS011;68863;49.528;11.010;2023-12-20T02:52:59;0.82;;;0.30;;
79412;SDS011;68863;49.528;11.010;2023-12-20T02:54:00;1.67;;;0.30;;
79412;SDS011;68863;49.528;11.010;2023-12-20T02:55:00;1.10;;;0.30;;
79412;SDS011;68863;49.528;11.010;2023-12-20T02:56:00;1.47;;;0.30;;
79412;SDS011;68863;49.528;11.010;2023-12-20T02:57:00;2.75;;;0.40;;
79412;SDS011;68863;49.528;11.010;2023-12-20T02:58:01;2.83;;;0.40;;
79412;SDS011;68863;49.528;11.010;2023-12-20T02:59:01;1.83;;;0.40;;
79412;SDS011;68863;49.528;11.010;2023-12-20T03:00:01;1.08;;;0.30;;
79412;SDS011;68863;49.528;11.010;2023-12-20T03:01:02;1.33;;;0.22;;
79412;SDS011;68863;49.528;11.010;2023-12-20T03:02:02;1.02;;;0.20;;
79412;SDS011;68863;49.528;11.010;2023-12-20T03:03:02;1.00;;;0.20;;
79412;SDS011;68863;49.528;11.010;2023-12-20T03:04:03;1.58;;;0.28;;
79412;SDS011;68863;49.528;11.010;2023-12-20T03:05:03;0.87;;;0.10;;
79412;SDS011;68863;49.528;11.010;2023-12-20T03:06:04;1.42;;;0.25;;
79412;SDS011;68863;49.528;11.010;2023-12-20T03:07:04;1.73;;;0.30;;
79412;SDS011;68863;49.528;11.010;2023-12-20T03:08:04;1.43;;;0.40;;
79412;SDS011;68863;49.528;11.010;2023-12-20T03:09:05;0.90;;;0.20;;
79412;SDS011;68863;49.528;11.010;2023-12-20T03:10:05;1.17;;;0.27;;
79412;SDS011;68863;49.528;11.010;2023-12-20T03:11:07;0.88;;;0.25;;
79412;SDS011;68863;49.528;11.010;2023-12-20T03:12:07;1.17;;;0.20;;
79412;SDS011;68863;49.528;11.010;2023-12-20T03:13:08;1.00;;;0.10;;
79412;SDS011;68863;49.528;11.010;2023-12-20T03:14:08;0.93;;;0.20;;
79412;SDS011;68863;49.528;11.010;2023-12-20T03:15:08;0.93;;;0.10;;
79412;SDS011;68863;49.528;11.010;2023-12-20T03:16:10;0.75;;;0.15;;
79412;SDS011;68863;49.528;11.010;2023-12-20T03:17:12;1.67;;;0.30;;
79412;SDS011;68863;49.528;11.010;2023-12-20T03:18:12;0.77;;;0.20;;
79412;SDS011;68863;49.528;11.010;2023-12-20T03:19:12;1.27;;;0.20;;
79412;SDS011;68863;49.528;11.010;2023-12-20T03:20:13;0.80;;;0.20;;
79412;SDS011;68863;49.528;11.010;2023-12-20T03:21:13;0.85;;;0.25;;
79412;SDS011;68863;49.528;11.010;2023-12-20T03:22:13;0.73;;;0.17;;
79412;SDS011;68863;49.528;11.010;2023-12-20T03:23:14;0.80;;;0.20;;
79412;SDS011;68863;49.528;11.010;2023-12-20T03:24:14;1.03;;;0.20;;
79412;SDS011;68863;49.528;11.010;2023-12-20T03:25:14;1.43;;;0.20;;
79412;SDS011;68863;49.528;11.010;2023-12-20T03:26:15;0.55;;;0.10;;
79412;SDS011;68863;49.528;11.010;2023-12-20T03:27:15;0.70;;;0.10;;
79412;SDS011;68863;49.528;11.010;2023-12-20T03:28:15;1.27;;;0.27;;
79412;SDS011;68863;49.528;11.010;2023-12-20T03:29:16;0.70;;;0.13;;
79412;SDS011;68863;49.528;11.010;2023-12-20T03:30:16;1.40;;;0.30;;
79412;SDS011;68863;49.528;11.010;2023-12-20T03:31:16;1.67;;;0.27;;
79412;SDS011;68863;49.528;11.010;2023-12-20T03:32:16;0.77;;;0.10;;
79412;SDS011;68863;49.528;11.010;2023-12-20T03:33:17;0.63;;;0.13;;
79412;SDS011;68863;49.528;11.010;2023-12-20T03:34:17;1.30;;;0.28;;
79412;SDS011;68863;49.528;11.010;2023-12-20T03:35:17;1.33;;;0.20;;
79412;SDS011;68863;49.528;11.010;2023-12-20T03:36:17;1.00;;;0.10;;
79412;SDS011;68863;49.528;11.010;2023-12-20T03:37:18;0.87;;;0.20;;
79412;SDS011;68863;49.528;11.010;2023-12-20T03:38:18;1.03;;;0.20;;
79412;SDS011;68863;49.528;11.010;2023-12-20T03:39:19;2.45;;;0.30;;
79412;SDS011;68863;49.528;11.010;2023-12-20T03:40:19;1.47;;;0.40;;
79412;SDS011;68863;49.528;11.010;2023-12-20T03:41:19;1.38;;;0.30;;
79412;SDS011;68863;49.528;11.010;2023-12-20T03:42:20;0.93;;;0.20;;
79412;SDS011;68863;49.528;11.010;2023-12-20T03:43:20;1.57;;;0.30;;
79412;SDS011;68863;49.528;11.010;2023-12-20T03:44:20;1.57;;;0.20;;
79412;SDS011;68863;49.528;11.010;2023-12-20T03:45:20;1.13;;;0.13;;
79412;SDS011;68863;49.528;11.010;2023-12-20T03:46:21;1.33;;;0.20;;
79412;SDS011;68863;49.528;11.010;2023-12-20T03:47:21;1.90;;;0.50;;
79412;SDS011;68863;49.528;11.010;2023-12-20T03:48:22;1.45;;;0.30;;
79412;SDS011;68863;49.528;11.010;2023-12-20T03:49:22;0.83;;;0.20;;
79412;SDS011;68863;49.528;11.010;2023-12-20T03:50:22;0.82;;;0.17;;
79412;SDS011;68863;49.528;11.010;2023-12-20T03:51:22;0.73;;;0.10;;
79412;SDS011;68863;49.528;11.010;2023-12-20T03:52:23;1.73;;;0.30;;
79412;SDS011;68863;49.528;11.010;2023-12-20T03:53:23;1.00;;;0.20;;
79412;SDS011;68863;49.528;11.010;2023-12-20T03:54:24;2.00;;;0.33;;
79412;SDS011;68863;49.528;11.010;2023-12-20T03:55:26;1.33;;;0.30;;
79412;SDS011;68863;49.528;11.010;2023-12-20T03:56:26;0.88;;;0.20;;
79412;SDS011;68863;49.528;11.010;2023-12-20T03:57:26;1.33;;;0.30;;
79412;SDS011;68863;49.528;11.010;2023-12-20T03:58:27;0.70;;;0.20;;
79412;SDS011;68863;49.528;11.010;2023-12-20T03:59:27;1.30;;;0.30;;
79412;SDS011;68863;49.528;11.010;2023-12-20T04:00:27;1.25;;;0.22;;
79412;SDS011;68863;49.528;11.010;2023-12-20T04:01:27;1.60;;;0.40;;
79412;SDS011;68863;49.528;11.010;2023-12-20T04:02:28;1.60;;;0.40;;
79412;SDS011;68863;49.528;11.010;2023-12-20T04:03:28;1.50;;;0.30;;
79412;SDS011;68863;49.528;11.010;2023-12-20T04:04:28;1.33;;;0.30;;
79412;SDS011;68863;49.528;11.010;2023-12-20T04:05:28;1.40;;;0.53;;
79412;SDS011;68863;49.528;11.010;2023-12-20T04:06:29;1.77;;;0.40;;
79412;SDS011;68863;49.528;11.010;2023-12-20T04:07:29;1.67;;;0.30;;
79412;SDS011;68863;49.528;11.010;2023-12-20T04:08:29;0.82;;;0.20;;
79412;SDS011;68863;49.528;11.010;2023-12-20T04:09:30;1.30;;;0.38;;
79412;SDS011;68863;49.528;11.010;2023-12-20T04:10:30;0.87;;;0.20;;
79412;SDS011;68863;49.528;11.010;2023-12-20T04:11:30;0.82;;;0.20;;
79412;SDS011;68863;49.528;11.010;2023-12-20T04:12:30;0.60;;;0.23;;
79412;SDS011;68863;49.528;11.010;2023-12-20T04:13:31;1.88;;;0.22;;
79412;SDS011;68863;49.528;11.010;2023-12-20T04:14:31;1.38;;;0.20;;
79412;SDS011;68863;49.528;11.010;2023-12-20T04:15:32;0.98;;;0.20;;
79412;SDS011;68863;49.528;11.010;2023-12-20T04:16:32;0.75;;;0.20;;
79412;SDS011;68863;49.528;11.010;2023-12-20T04:17:32;1.05;;;0.20;;
79412;SDS011;68863;49.528;11.010;2023-12-20T04:18:33;1.43;;;0.30;;
79412;SDS011;68863;49.528;11.010;2023-12-20T04:19:33;1.07;;;0.20;;
79412;SDS011;68863;49.528;11.010;2023-12-20T04:20:33;2.43;;;0.40;;
79412;SDS011;68863;49.528;11.010;2023-12-20T04:21:33;0.90;;;0.20;;
79412;SDS011;68863;49.528;11.010;2023-12-20T04:22:33;1.80;;;0.30;;
79412;SDS011;68863;49.528;11.010;2023-12-20T04:23:34;2.10;;;0.25;;
79412;SDS011;68863;49.528;11.010;2023-12-20T04:24:34;1.00;;;0.20;;
79412;SDS011;68863;49.528;11.010;2023-12-20T04:25:34;0.88;;;0.20;;
79412;SDS011;68863;49.528;11.010;2023-12-20T04:26:35;0.73;;;0.20;;
79412;SDS011;68863;49.528;11.010;2023-12-20T04:27:35;1.43;;;0.30;;
79412;SDS011;68863;49.528;11.010;2023-12-20T04:28:35;0.97;;;0.20;;
79412;SDS011;68863;49.528;11.010;2023-12-20T04:29:35;1.38;;;0.20;;
79412;SDS011;68863;49.528;11.010;2023-12-20T04:30:36;0.88;;;0.20;;
79412;SDS011;68863;49.528;11.010;2023-12-20T04:31:36;2.30;;;0.30;;
79412;SDS011;68863;49.528;11.010;2023-12-20T04:32:36;0.93;;;0.20;;
79412;SDS011;68863;49.528;11.010;2023-12-20T04:33:36;1.77;;;0.30;;
79412;SDS011;68863;49.528;11.010;2023-12-20T04:34:37;1.30;;;0.27;;
79412;SDS011;68863;49.528;11.010;2023-12-20T04:35:37;1.47;;;0.20;;
79412;SDS011;68863;49.528;11.010;2023-12-20T04:36:37;0.77;;;0.20;;
79412;SDS011;68863;49.528;11.010;2023-12-20T04:37:37;1.27;;;0.28;;
79412;SDS011;68863;49.528;11.010;2023-12-20T04:38:38;1.23;;;0.20;;
79412;SDS011;68863;49.528;11.010;2023-12-20T04:39:38;1.10;;;0.30;;
79412;SDS011;68863;49.528;11.010;2023-12-20T04:40:38;2.58;;;0.40;;
79412;SDS011;68863;49.528;11.010;2023-12-20T04:41:40;1.15;;;0.20;;
79412;SDS011;68863;49.528;11.010;2023-12-20T04:42:41;1.20;;;0.20;;
79412;SDS011;68863;49.528;11.010;2023-12-20T04:43:41;2.00;;;0.30;;
79412;SDS011;68863;49.528;11.010;2023-12-20T04:44:42;0.90;;;0.20;;
79412;SDS011;68863;49.528;11.010;2023-12-20T04:45:43;0.60;;;0.15;;
79412;SDS011;68863;49.528;11.010;2023-12-20T04:46:44;0.77;;;0.20;;
79412;SDS011;68863;49.528;11.010;2023-12-20T04:47:44;1.17;;;0.20;;
79412;SDS011;68863;49.528;11.010;2023-12-20T04:48:45;1.48;;;0.20;;
79412;SDS011;68863;49.528;11.010;2023-12-20T04:49:45;1.77;;;0.30;;
79412;SDS011;68863;49.528;11.010;2023-12-20T04:50:45;0.80;;;0.20;;
79412;SDS011;68863;49.528;11.010;2023-12-20T04:51:46;1.20;;;0.23;;
79412;SDS011;68863;49.528;11.010;2023-12-20T04:52:46;1.20;;;0.20;;
79412;SDS011;68863;49.528;11.010;2023-12-20T04:53:47;1.25;;;0.30;;
79412;SDS011;68863;49.528;11.010;2023-12-20T04:54:47;0.65;;;0.20;;
79412;SDS011;68863;49.528;11.010;2023-12-20T04:55:47;1.30;;;0.30;;
79412;SDS011;68863;49.528;11.010;2023-12-20T04:56:47;1.07;;;0.20;;
79412;SDS011;68863;49.528;11.010;2023-12-20T04:57:48;1.77;;;0.30;;
79412;SDS011;68863;49.528;11.010;2023-12-20T04:58:48;2.65;;;0.35;;
79412;SDS011;68863;49.528;11.010;2023-12-20T04:59:48;1.52;;;0.30;;
79412;SDS011;68863;49.528;11.010;2023-12-20T05:00:48;0.90;;;0.20;;
79412;SDS011;68863;49.528;11.010;2023-12-20T05:01:49;0.43;;;0.10;;
79412;SDS011;68863;49.528;11.010;2023-12-20T05:02:49;1.30;;;0.20;;
79412;SDS011;68863;49.528;11.010;2023-12-20T05:03:49;1.20;;;0.30;;
79412;SDS011;68863;49.528;11.010;2023-12-20T05:04:50;1.33;;;0.20;;
79412;SDS011;68863;49.528;11.010;2023-12-20T05:05:50;1.08;;;0.20;;
79412;SDS011;68863;49.528;11.010;2023-12-20T05:06:50;0.80;;;0.20;;
79412;SDS011;68863;49.528;11.010;2023-12-20T05:07:50;1.30;;;0.30;;
79412;SDS011;68863;49.528;11.010;2023-12-20T05:08:52;1.38;;;0.30;;
79412;SDS011;68863;49.528;11.010;2023-12-20T05:09:52;1.60;;;0.20;;
79412;SDS011;68863;49.528;11.010;2023-12-20T05:10:56;1.27;;;0.30;;
79412;SDS011;68863;49.528;11.010;2023-12-20T05:11:56;2.97;;;0.50;;
79412;SDS011;68863;49.528;11.010;2023-12-20T05:12:56;1.43;;;0.30;;
79412;SDS011;68863;49.528;11.010;2023-12-20T05:13:57;1.07;;;0.30;;
79412;SDS011;68863;49.528;11.010;2023-12-20T05:14:57;1.63;;;0.30;;
79412;SDS011;68863;49.528;11.010;2023-12-20T05:15:58;0.70;;;0.20;;
79412;SDS011;68863;49.528;11.010;2023-12-20T05:16:58;1.83;;;0.40;;
79412;SDS011;68863;49.528;11.010;2023-12-20T05:17:58;1.40;;;0.20;;
79412;SDS011;68863;49.528;11.010;2023-12-20T05:18:58;1.40;;;0.32;;
79412;SDS011;68863;49.528;11.010;2023-12-20T05:20:00;2.92;;;0.30;;
79412;SDS011;68863;49.528;11.010;2023-12-20T05:21:01;1.55;;;0.20;;
79412;SDS011;68863;49.528;11.010;2023-12-20T05:22:01;2.30;;;0.25;;
79412;SDS011;68863;49.528;11.010;2023-12-20T05:23:02;1.30;;;0.30;;
79412;SDS011;68863;49.528;11.010;2023-12-20T05:24:03;0.98;;;0.30;;
79412;SDS011;68863;49.528;11.010;2023-12-20T05:25:03;1.20;;;0.20;;
79412;SDS011;68863;49.528;11.010;2023-12-20T05:26:04;1.35;;;0.25;;
79412;SDS011;68863;49.528;11.010;2023-12-20T05:27:04;1.40;;;0.30;;
79412;SDS011;68863;49.528;11.010;2023-12-20T05:28:05;0.73;;;0.20;;
79412;SDS011;68863;49.528;11.010;2023-12-20T05:29:05;1.10;;;0.38;;
79412;SDS011;68863;49.528;11.010;2023-12-20T05:30:06;1.03;;;0.23;;
79412;SDS011;68863;49.528;11.010;2023-12-20T05:31:06;1.65;;;0.30;;
79412;SDS011;68863;49.528;11.010;2023-12-20T05:32:07;0.43;;;0.10;;
79412;SDS011;68863;49.528;11.010;2023-12-20T05:33:07;1.13;;;0.30;;
79412;SDS011;68863;49.528;11.010;2023-12-20T05:34:07;1.27;;;0.40;;
79412;SDS011;68863;49.528;11.010;2023-12-20T05:35:08;0.95;;;0.20;;
79412;SDS011;68863;49.528;11.010;2023-12-20T05:36:08;0.53;;;0.10;;
79412;SDS011;68863;49.528;11.010;2023-12-20T05:37:11;1.23;;;0.30;;
79412;SDS011;68863;49.528;11.010;2023-12-20T05:38:11;1.42;;;0.30;;
79412;SDS011;68863;49.528;11.010;2023-12-20T05:39:11;0.65;;;0.20;;
79412;SDS011;68863;49.528;11.010;2023-12-20T05:40:12;1.17;;;0.20;;
79412;SDS011;68863;49.528;11.010;2023-12-20T05:41:12;0.98;;;0.10;;
79412;SDS011;68863;49.528;11.010;2023-12-20T05:42:13;1.67;;;0.20;;
79412;SDS011;68863;49.528;11.010;2023-12-20T05:43:13;1.23;;;0.20;;
79412;SDS011;68863;49.528;11.010;2023-12-20T05:44:14;2.65;;;0.32;;
79412;SDS011;68863;49.528;11.010;2023-12-20T05:45:14;1.27;;;0.20;;
79412;SDS011;68863;49.528;11.010;2023-12-20T05:46:14;1.38;;;0.30;;
79412;SDS011;68863;49.528;11.010;2023-12-20T05:47:15;1.00;;;0.20;;
79412;SDS011;68863;49.528;11.010;2023-12-20T05:48:15;0.40;;;0.13;;
79412;SDS011;68863;49.528;11.010;2023-12-20T05:49:15;1.50;;;0.30;;
79412;SDS011;68863;49.528;11.010;2023-12-20T05:50:16;0.97;;;0.20;;
79412;SDS011;68863;49.528;11.010;2023-12-20T05:51:16;1.00;;;0.10;;
79412;SDS011;68863;49.528;11.010;2023-12-20T05:52:16;1.07;;;0.20;;
79412;SDS011;68863;49.528;11.010;2023-12-20T05:53:16;1.17;;;0.30;;
79412;SDS011;68863;49.528;11.010;2023-12-20T05:54:17;1.53;;;0.30;;
79412;SDS011;68863;49.528;11.010;2023-12-20T05:55:17;0.80;;;0.20;;
79412;SDS011;68863;49.528;11.010;2023-12-20T05:56:17;1.33;;;0.30;;
79412;SDS011;68863;49.528;11.010;2023-12-20T05:57:17;1.02;;;0.20;;
79412;SDS011;68863;49.528;11.010;2023-12-20T05:58:18;1.00;;;0.70;;
79412;SDS011;68863;49.528;11.010;2023-12-20T05:59:18;1.20;;;0.30;;